Time;durP1;ratioP1;P1;durP2;ratioP2;P2;SDS_P1;SDS_P2;PMS_P1;PMS_P2;Temp;Humidity;BMP_temperature;BMP_pressure;BME280_temperature;BME280_humidity;BME280_pressure;Samples;Min_cycle;Max_cycle;Signal;HPM_P1;HPM_P2
2022/04/22 00:00:37;;;;;;;;;;;21.90;30.90;;;;;;446641;266;985;-74
2022/04/22 00:02:35;;;;;;;;;;;22.00;30.80;;;;;;446537;266;1507;-74
2022/04/22 00:04:36;;;;;;;;;;;22.00;30.70;;;;;;446669;266;1078;-74
2022/04/22 00:06:38;;;;;;;;;;;22.00;30.60;;;;;;446627;266;1248;-74
2022/04/22 00:08:39;;;;;;;;;;;21.90;30.80;;;;;;446674;266;2208;-74
2022/04/22 00:11:29;;;;;;;;;;;22.10;30.70;;;;;;446787;266;1251;-74
2022/04/22 00:12:43;;;;;;;;;;;22.10;30.80;;;;;;445664;267;1163;-74
2022/04/22 00:14:43;;;;;;;;;;;22.00;30.70;;;;;;446651;267;1519;-74
2022/04/22 00:16:45;;;;;;;;;;;22.10;30.70;;;;;;446732;266;1204;-74
2022/04/22 00:18:46;;;;;;;;;;;22.00;30.70;;;;;;446792;266;1125;-74
2022/04/22 00:20:47;;;;;;;;;;;22.00;30.70;;;;;;446679;266;1245;-74
2022/04/22 00:22:49;;;;;;;;;;;22.00;30.70;;;;;;446758;266;1235;-74
2022/04/22 00:24:50;;;;;;;;;;;22.00;30.60;;;;;;446607;266;1082;-74
2022/04/22 00:26:51;;;;;;;;;;;22.00;30.70;;;;;;446680;266;1275;-74
2022/04/22 00:28:53;;;;;;;;;;;22.10;30.70;;;;;;446664;266;2149;-74
2022/04/22 00:30:54;;;;;;;;;;;22.00;30.70;;;;;;446674;266;1152;-74
2022/04/22 00:32:55;;;;;;;;;;;22.10;30.70;;;;;;446709;266;1173;-74
2022/04/22 00:34:57;;;;;;;;;;;22.00;30.70;;;;;;446679;266;998;-74
2022/04/22 00:36:58;;;;;;;;;;;22.20;30.60;;;;;;446677;266;1385;-74
2022/04/22 00:39:01;;;;;;;;;;;22.00;30.80;;;;;;446679;266;997;-74
2022/04/22 00:41:01;;;;;;;;;;;22.10;30.70;;;;;;446458;267;1438;-74
2022/04/22 00:43:02;;;;;;;;;;;22.10;30.60;;;;;;446699;266;967;-74
2022/04/22 00:45:03;;;;;;;;;;;22.10;30.60;;;;;;446728;266;1045;-74
2022/04/22 00:47:05;;;;;;;;;;;22.10;30.60;;;;;;446668;266;1278;-74
2022/04/22 00:49:06;;;;;;;;;;;22.10;30.60;;;;;;446636;266;2142;-74
2022/04/22 00:51:07;;;;;;;;;;;22.10;30.60;;;;;;446612;266;1619;-74
2022/04/22 00:53:09;;;;;;;;;;;22.10;30.60;;;;;;446659;266;1068;-74
2022/04/22 00:55:10;;;;;;;;;;;22.10;30.60;;;;;;446762;266;1121;-74
2022/04/22 00:57:11;;;;;;;;;;;22.20;30.60;;;;;;446603;266;1219;-74
2022/04/22 00:59:13;;;;;;;;;;;22.20;30.60;;;;;;446701;266;989;-74
2022/04/22 01:01:14;;;;;;;;;;;22.20;30.50;;;;;;446675;266;1248;-74
2022/04/22 01:03:15;;;;;;;;;;;22.20;30.60;;;;;;446739;266;1213;-74
2022/04/22 01:09:56;;;;;;;;;;;22.00;30.70;;;;;;446721;265;2129;-74
2022/04/22 01:11:56;;;;;;;;;;;22.00;30.80;;;;;;446722;266;1488;-74
2022/04/22 01:13:58;;;;;;;;;;;22.00;30.80;;;;;;446696;266;1100;-74
2022/04/22 01:15:59;;;;;;;;;;;22.00;30.70;;;;;;446614;266;1159;-74
2022/04/22 01:18:00;;;;;;;;;;;22.10;30.70;;;;;;446741;266;1249;-73
2022/04/22 01:20:02;;;;;;;;;;;22.10;30.70;;;;;;446683;266;1009;-73
2022/04/22 01:22:03;;;;;;;;;;;22.00;30.80;;;;;;446660;266;1469;-74
2022/04/22 01:24:04;;;;;;;;;;;22.10;30.70;;;;;;446697;266;954;-74
2022/04/22 01:26:06;;;;;;;;;;;22.00;30.80;;;;;;446703;266;1253;-74
2022/04/22 01:28:07;;;;;;;;;;;22.00;30.90;;;;;;446643;266;1191;-74
2022/04/22 01:30:08;;;;;;;;;;;22.10;30.80;;;;;;446611;266;2169;-74
2022/04/22 01:32:10;;;;;;;;;;;22.00;30.70;;;;;;446652;266;1237;-74
2022/04/22 01:34:11;;;;;;;;;;;22.10;30.70;;;;;;446723;266;1203;-74
2022/04/22 01:36:12;;;;;;;;;;;22.00;30.70;;;;;;446665;266;1228;-74
2022/04/22 01:38:14;;;;;;;;;;;22.00;30.80;;;;;;446694;266;1000;-74
2022/04/22 01:40:15;;;;;;;;;;;22.00;30.70;;;;;;446711;266;969;-74
2022/04/22 01:42:18;;;;;;;;;;;22.10;30.80;;;;;;446703;266;1213;-74
2022/04/22 01:44:18;;;;;;;;;;;22.10;30.80;;;;;;446670;266;1729;-74
2022/04/22 01:46:20;;;;;;;;;;;22.10;30.70;;;;;;446605;266;1241;-74
2022/04/22 01:48:21;;;;;;;;;;;22.00;30.90;;;;;;446557;266;1200;-74
2022/04/22 01:50:22;;;;;;;;;;;22.00;30.80;;;;;;446628;266;2133;-74
2022/04/22 01:52:24;;;;;;;;;;;21.90;31.00;;;;;;446591;266;1176;-74
2022/04/22 01:54:25;;;;;;;;;;;22.00;30.90;;;;;;446672;266;964;-74
2022/04/22 01:56:26;;;;;;;;;;;21.90;31.00;;;;;;446693;266;1197;-74
2022/04/22 01:58:28;;;;;;;;;;;21.80;31.10;;;;;;446645;266;1016;-74
2022/04/22 02:00:29;;;;;;;;;;;21.70;31.20;;;;;;446691;266;993;-73
2022/04/22 02:02:30;;;;;;;;;;;21.70;31.30;;;;;;446626;266;1165;-74
2022/04/22 02:06:42;;;;;;;;;;;21.70;31.20;;;;;;462382;255;2590;-76
2022/04/22 02:08:44;;;;;;;;;;;21.70;31.30;;;;;;459531;259;2197;-76
2022/04/22 02:10:46;;;;;;;;;;;21.70;31.30;;;;;;462318;258;1201;-76
2022/04/22 02:12:46;;;;;;;;;;;21.70;31.20;;;;;;470041;253;1361;-76
2022/04/22 02:14:47;;;;;;;;;;;21.70;31.20;;;;;;459571;259;1062;-75
2022/04/22 02:16:48;;;;;;;;;;;21.70;31.30;;;;;;462375;257;1426;-76
2022/04/22 02:18:50;;;;;;;;;;;21.60;31.30;;;;;;470085;253;1069;-76
2022/04/22 02:20:53;;;;;;;;;;;21.60;31.40;;;;;;459662;259;1224;-76
2022/04/22 02:22:52;;;;;;;;;;;21.60;31.40;;;;;;462291;258;1252;-76
2022/04/22 02:24:56;;;;;;;;;;;21.60;31.30;;;;;;459576;259;1254;-76
2022/04/22 02:29:14;;;;;;;;;;;21.70;31.20;;;;;;463419;257;2164;-76
2022/04/22 02:31:16;;;;;;;;;;;21.70;31.10;;;;;;480247;248;1334;-76
2022/04/22 02:33:17;;;;;;;;;;;21.60;31.30;;;;;;459648;259;1238;-76
2022/04/22 02:35:19;;;;;;;;;;;21.70;31.10;;;;;;462322;258;1065;-76
2022/04/22 02:37:20;;;;;;;;;;;21.70;31.20;;;;;;469897;253;1514;-76
2022/04/22 02:39:21;;;;;;;;;;;21.60;31.20;;;;;;459679;259;1234;-76
2022/04/22 02:46:01;;;;;;;;;;;21.60;31.20;;;;;;480189;248;1223;-76
2022/04/22 02:48:02;;;;;;;;;;;21.50;31.50;;;;;;459575;258;1207;-76
2022/04/22 02:50:04;;;;;;;;;;;21.60;31.40;;;;;;462370;258;2199;-76
2022/04/22 02:52:05;;;;;;;;;;;21.50;31.40;;;;;;469945;253;1210;-76
2022/04/22 02:54:07;;;;;;;;;;;21.50;31.40;;;;;;459588;259;1262;-75
2022/04/22 02:56:08;;;;;;;;;;;21.60;31.40;;;;;;462372;258;1198;-76
2022/04/22 02:58:09;;;;;;;;;;;21.70;31.30;;;;;;469942;252;1042;-76
2022/04/22 03:00:11;;;;;;;;;;;21.70;31.10;;;;;;459635;259;1215;-76
2022/04/22 03:02:12;;;;;;;;;;;21.70;31.10;;;;;;462301;258;1127;-76
2022/04/22 03:04:15;;;;;;;;;;;21.70;31.20;;;;;;469965;253;1053;-76
2022/04/22 03:06:15;;;;;;;;;;;21.60;31.20;;;;;;459406;259;1427;-76
2022/04/22 03:08:16;;;;;;;;;;;21.60;31.30;;;;;;462299;258;1067;-76
2022/04/22 03:10:18;;;;;;;;;;;21.70;31.20;;;;;;469990;252;2119;-76
2022/04/22 03:12:19;;;;;;;;;;;21.70;31.20;;;;;;459505;259;1270;-76
2022/04/22 03:14:20;;;;;;;;;;;21.70;31.10;;;;;;462363;258;1036;-76
2022/04/22 03:16:21;;;;;;;;;;;21.60;31.20;;;;;;469947;253;1566;-76
2022/04/22 03:18:23;;;;;;;;;;;21.50;31.50;;;;;;459572;259;1255;-76
2022/04/22 03:20:24;;;;;;;;;;;21.70;31.40;;;;;;462365;257;1064;-76
2022/04/22 03:22:26;;;;;;;;;;;21.60;31.40;;;;;;469899;251;1160;-76
2022/04/22 03:24:27;;;;;;;;;;;21.70;31.30;;;;;;459558;259;1054;-76
2022/04/22 03:26:28;;;;;;;;;;;21.70;31.20;;;;;;462348;257;1381;-76
2022/04/22 03:28:30;;;;;;;;;;;21.70;31.20;;;;;;470144;252;1080;-76
2022/04/22 03:30:34;;;;;;;;;;;21.70;31.30;;;;;;459520;259;2137;-76
2022/04/22 03:32:33;;;;;;;;;;;21.60;31.30;;;;;;462230;258;1606;-76
2022/04/22 03:34:34;;;;;;;;;;;21.50;31.50;;;;;;459530;259;1007;-76
2022/04/22 03:36:36;;;;;;;;;;;21.60;31.40;;;;;;462265;257;1126;-76
2022/04/22 03:38:37;;;;;;;;;;;21.60;31.40;;;;;;459560;259;1138;-76
2022/04/22 03:40:38;;;;;;;;;;;21.60;31.40;;;;;;462382;257;1151;-76
2022/04/22 03:42:41;;;;;;;;;;;21.60;31.40;;;;;;470087;253;1178;-76
2022/04/22 03:44:41;;;;;;;;;;;21.60;31.40;;;;;;459492;259;1452;-76
2022/04/22 03:46:42;;;;;;;;;;;21.70;31.30;;;;;;462268;257;1240;-76
2022/04/22 03:48:44;;;;;;;;;;;21.70;31.30;;;;;;469970;253;1211;-76
2022/04/22 03:50:45;;;;;;;;;;;21.60;31.40;;;;;;459588;259;2197;-76
2022/04/22 03:52:46;;;;;;;;;;;21.50;31.60;;;;;;462373;257;1162;-76
2022/04/22 03:54:48;;;;;;;;;;;21.50;31.60;;;;;;469982;253;1152;-76
2022/04/22 03:59:18;;;;;;;;;;;21.60;31.60;;;;;;446846;266;1190;-76
2022/04/22 04:01:20;;;;;;;;;;;21.60;31.50;;;;;;461265;254;1320;-76
2022/04/22 04:03:21;;;;;;;;;;;21.60;31.50;;;;;;469952;252;1072;-76
2022/04/22 04:05:22;;;;;;;;;;;21.40;31.60;;;;;;459585;259;1115;-76
2022/04/22 04:07:24;;;;;;;;;;;21.50;31.60;;;;;;462350;258;1190;-76
2022/04/22 04:16:23;;;;;;;;;;;21.60;31.50;;;;;;459613;258;1308;-76
2022/04/22 04:18:24;;;;;;;;;;;21.60;31.50;;;;;;462251;257;1262;-76
2022/04/22 04:25:04;;;;;;;;;;;21.50;31.60;;;;;;462251;257;1029;-76
2022/04/22 04:27:07;;;;;;;;;;;21.50;31.70;;;;;;469966;253;1098;-76
2022/04/22 04:29:09;;;;;;;;;;;21.50;31.60;;;;;;459423;259;1276;-76
2022/04/22 04:31:08;;;;;;;;;;;21.60;31.60;;;;;;462152;258;2133;-76
2022/04/22 04:33:10;;;;;;;;;;;21.60;31.50;;;;;;469969;253;1584;-76
2022/04/22 04:35:11;;;;;;;;;;;21.50;31.60;;;;;;459607;259;1178;-76
2022/04/22 04:37:12;;;;;;;;;;;21.60;31.60;;;;;;462251;257;1473;-76
2022/04/22 04:39:13;;;;;;;;;;;21.50;31.60;;;;;;469870;253;1068;-76
2022/04/22 04:41:15;;;;;;;;;;;21.60;31.60;;;;;;459452;259;1191;-76
2022/04/22 04:43:17;;;;;;;;;;;21.70;31.50;;;;;;462149;258;1354;-76
2022/04/22 04:45:18;;;;;;;;;;;21.60;31.50;;;;;;459357;259;1308;-76
2022/04/22 04:47:19;;;;;;;;;;;21.60;31.50;;;;;;462181;258;1113;-76
2022/04/22 04:49:20;;;;;;;;;;;21.70;31.50;;;;;;459410;259;1081;-76
2022/04/22 04:51:21;;;;;;;;;;;21.60;31.60;;;;;;462102;258;2218;-76
2022/04/22 04:53:24;;;;;;;;;;;21.50;31.70;;;;;;469842;252;1274;-76
2022/04/22 04:55:26;;;;;;;;;;;21.60;31.70;;;;;;459482;259;1090;-76
2022/04/22 04:57:26;;;;;;;;;;;21.60;31.70;;;;;;462179;258;1065;-76
2022/04/22 04:59:28;;;;;;;;;;;21.60;31.60;;;;;;469969;252;1059;-76
2022/04/22 05:01:29;;;;;;;;;;;21.60;31.70;;;;;;459388;259;1271;-76
2022/04/22 05:03:30;;;;;;;;;;;21.60;31.70;;;;;;462352;257;1115;-76
2022/04/22 05:05:32;;;;;;;;;;;21.60;31.70;;;;;;469979;252;1061;-76
2022/04/22 05:07:33;;;;;;;;;;;21.60;31.70;;;;;;459462;259;1212;-76
2022/04/22 05:09:34;;;;;;;;;;;21.60;31.70;;;;;;462196;258;2172;-76
2022/04/22 05:11:36;;;;;;;;;;;21.50;31.80;;;;;;459379;259;1115;-76
2022/04/22 05:13:37;;;;;;;;;;;21.60;31.80;;;;;;462252;257;1088;-76
2022/04/22 05:15:39;;;;;;;;;;;21.50;31.80;;;;;;469827;253;1160;-76
2022/04/22 05:17:40;;;;;;;;;;;21.60;31.90;;;;;;459354;259;1398;-76
2022/04/22 05:19:41;;;;;;;;;;;21.60;31.80;;;;;;462110;258;1434;-76
2022/04/22 05:21:43;;;;;;;;;;;21.60;31.80;;;;;;459399;258;1356;-76
2022/04/22 05:23:44;;;;;;;;;;;21.50;31.90;;;;;;462084;258;1148;-76
2022/04/22 05:25:45;;;;;;;;;;;21.60;31.80;;;;;;459342;259;1096;-76
2022/04/22 05:27:47;;;;;;;;;;;21.50;31.90;;;;;;462155;257;1163;-76
2022/04/22 05:34:27;;;;;;;;;;;21.40;32.20;;;;;;463261;257;1047;-76
2022/04/22 05:36:28;;;;;;;;;;;21.50;32.10;;;;;;480010;248;1244;-76
2022/04/22 05:38:30;;;;;;;;;;;21.50;32.10;;;;;;459350;258;1162;-76
2022/04/22 05:40:31;;;;;;;;;;;21.60;32.00;;;;;;462144;257;1061;-76
2022/04/22 05:42:32;;;;;;;;;;;21.60;32.10;;;;;;459397;259;1076;-76
2022/04/22 05:44:33;;;;;;;;;;;21.50;32.00;;;;;;462267;257;1020;-76
2022/04/22 05:46:35;;;;;;;;;;;21.60;32.10;;;;;;459406;257;1256;-76
2022/04/22 05:48:36;;;;;;;;;;;21.60;32.10;;;;;;462064;257;1082;-76
2022/04/22 05:50:37;;;;;;;;;;;21.60;32.10;;;;;;469714;252;2199;-76
2022/04/22 05:52:39;;;;;;;;;;;21.60;32.20;;;;;;459256;259;1210;-76
2022/04/22 05:54:40;;;;;;;;;;;21.50;32.20;;;;;;462180;257;1217;-76
2022/04/22 05:56:42;;;;;;;;;;;21.50;32.20;;;;;;469727;252;1548;-76
2022/04/22 05:58:43;;;;;;;;;;;21.50;32.30;;;;;;459414;259;1396;-76
2022/04/22 06:00:44;;;;;;;;;;;21.40;32.20;;;;;;462102;258;1166;-76
2022/04/22 06:02:45;;;;;;;;;;;21.50;32.20;;;;;;469691;252;1195;-76
2022/04/22 06:04:47;;;;;;;;;;;21.40;32.30;;;;;;459216;259;1052;-76
2022/04/22 06:06:48;;;;;;;;;;;21.40;32.40;;;;;;462050;257;1113;-75
2022/04/22 06:11:09;;;;;;;;;;;21.50;32.40;;;;;;462003;256;2120;-76
2022/04/22 06:13:10;;;;;;;;;;;21.50;32.40;;;;;;469714;252;1381;-76
2022/04/22 06:15:11;;;;;;;;;;;21.50;32.40;;;;;;459255;259;1149;-76
2022/04/22 06:17:13;;;;;;;;;;;21.50;32.30;;;;;;461951;258;1164;-76
2022/04/22 06:19:14;;;;;;;;;;;21.40;32.60;;;;;;469602;253;1068;-76
2022/04/22 06:21:15;;;;;;;;;;;21.30;32.60;;;;;;459177;256;1166;-76
2022/04/22 06:23:17;;;;;;;;;;;21.40;32.60;;;;;;461997;258;1085;-76
2022/04/22 06:25:18;;;;;;;;;;;21.50;32.50;;;;;;459107;258;1221;-76
2022/04/22 06:27:19;;;;;;;;;;;21.40;32.50;;;;;;461833;258;1147;-76
2022/04/22 06:29:21;;;;;;;;;;;21.50;32.60;;;;;;469681;252;1086;-76
2022/04/22 06:31:22;;;;;;;;;;;21.50;32.60;;;;;;458964;259;2138;-76
2022/04/22 06:33:23;;;;;;;;;;;21.50;32.60;;;;;;461936;257;1243;-75
2022/04/22 06:35:24;;;;;;;;;;;21.50;32.60;;;;;;469385;253;1208;-75
2022/04/22 06:37:26;;;;;;;;;;;21.60;32.50;;;;;;458975;259;1113;-76
2022/04/22 06:45:46;;;;;;;;;;;21.50;32.60;;;;;;461914;258;1175;-76
2022/04/22 06:46:09;;;;;;;;;;;21.60;33.20;;;;;;461835;256;1191;-75
2022/04/22 06:48:09;;;;;;;;;;;21.50;33.10;;;;;;469468;252;1082;-76
2022/04/22 06:50:11;;;;;;;;;;;21.60;33.00;;;;;;459147;259;2200;-76
2022/04/22 06:52:13;;;;;;;;;;;21.70;33.00;;;;;;461672;257;1129;-76
2022/04/22 06:54:14;;;;;;;;;;;21.60;32.90;;;;;;469698;252;1398;-76
2022/04/22 06:56:15;;;;;;;;;;;21.60;33.00;;;;;;458999;259;1231;-76
2022/04/22 06:58:16;;;;;;;;;;;21.60;32.90;;;;;;462002;257;1083;-76
2022/04/22 07:00:18;;;;;;;;;;;21.60;32.80;;;;;;469517;252;1074;-76
2022/04/22 07:02:19;;;;;;;;;;;21.60;32.80;;;;;;459278;259;1195;-75
2022/04/22 07:04:21;;;;;;;;;;;21.70;32.80;;;;;;461600;257;1100;-76
2022/04/22 07:06:22;;;;;;;;;;;21.60;32.80;;;;;;458578;257;1257;-76
2022/04/22 07:08:23;;;;;;;;;;;21.70;32.90;;;;;;461709;257;1087;-76
2022/04/22 07:10:24;;;;;;;;;;;21.70;32.90;;;;;;458818;258;2216;-76
2022/04/22 07:12:25;;;;;;;;;;;21.60;32.90;;;;;;461461;258;1231;-76
2022/04/22 07:14:27;;;;;;;;;;;21.60;32.80;;;;;;469153;253;1050;-76
2022/04/22 07:16:28;;;;;;;;;;;21.70;32.70;;;;;;458831;256;1194;-76
2022/04/22 07:18:29;;;;;;;;;;;21.60;32.90;;;;;;461753;258;1101;-76
2022/04/22 07:20:31;;;;;;;;;;;21.50;33.00;;;;;;458952;259;1241;-75
2022/04/22 07:22:32;;;;;;;;;;;21.50;33.10;;;;;;461740;258;1141;-76
2022/04/22 07:24:33;;;;;;;;;;;21.60;33.00;;;;;;469218;252;1155;-76
2022/04/22 07:26:35;;;;;;;;;;;21.60;33.00;;;;;;458908;259;1202;-76
2022/04/22 07:28:37;;;;;;;;;;;21.60;33.00;;;;;;461673;257;1120;-76
2022/04/22 07:30:39;;;;;;;;;;;21.60;33.00;;;;;;469318;253;2198;-76
2022/04/22 07:32:40;;;;;;;;;;;21.50;33.10;;;;;;458851;259;1248;-76
2022/04/22 07:34:41;;;;;;;;;;;21.50;33.20;;;;;;461852;257;1111;-76
2022/04/22 07:36:43;;;;;;;;;;;21.40;33.30;;;;;;458941;258;1202;-76
2022/04/22 07:38:44;;;;;;;;;;;21.40;33.30;;;;;;461849;257;1453;-76
2022/04/22 07:40:48;;;;;;;;;;;21.30;33.30;;;;;;458830;258;1206;-76
2022/04/22 07:46:46;;;;;;;;;;;21.30;33.60;;;;;;461486;258;1275;-76
2022/04/22 07:47:09;;;;;;;;;;;21.20;33.80;;;;;;461768;256;1250;-76
2022/04/22 07:49:09;;;;;;;;;;;21.20;33.70;;;;;;458707;259;1390;-75
2022/04/22 07:51:10;;;;;;;;;;;21.20;33.70;;;;;;461590;258;2187;-76
2022/04/22 07:53:11;;;;;;;;;;;21.20;33.60;;;;;;458854;259;1072;-75
2022/04/22 07:55:13;;;;;;;;;;;21.20;33.70;;;;;;461708;257;1169;-76
2022/04/22 07:57:14;;;;;;;;;;;21.20;33.80;;;;;;458864;259;1291;-76
2022/04/22 07:59:15;;;;;;;;;;;21.10;33.90;;;;;;461601;258;1124;-76
2022/04/22 08:01:16;;;;;;;;;;;21.10;33.90;;;;;;469209;252;1171;-75
2022/04/22 08:03:18;;;;;;;;;;;21.10;34.00;;;;;;458887;259;1031;-75
2022/04/22 08:05:19;;;;;;;;;;;21.20;33.90;;;;;;461736;257;1118;-76
2022/04/22 08:07:20;;;;;;;;;;;21.10;33.90;;;;;;469202;253;1128;-76
2022/04/22 08:09:22;;;;;;;;;;;21.00;34.10;;;;;;458987;259;1084;-76
2022/04/22 08:11:23;;;;;;;;;;;21.00;34.20;;;;;;461572;257;2203;-76
2022/04/22 08:13:25;;;;;;;;;;;21.00;34.10;;;;;;458882;258;1168;-75
2022/04/22 08:15:26;;;;;;;;;;;21.10;34.10;;;;;;461622;258;1247;-76
2022/04/22 08:17:27;;;;;;;;;;;21.20;34.00;;;;;;469448;252;1195;-76
2022/04/22 08:19:28;;;;;;;;;;;21.10;34.00;;;;;;458887;259;1104;-76
2022/04/22 08:21:33;;;;;;;;;;;21.20;33.90;;;;;;461750;258;1298;-76
2022/04/22 08:23:31;;;;;;;;;;;21.30;33.60;;;;;;458879;259;1254;-75
2022/04/22 08:25:33;;;;;;;;;;;21.30;33.60;;;;;;461742;257;1191;-75
2022/04/22 08:27:34;;;;;;;;;;;21.40;33.50;;;;;;469545;252;1099;-76
2022/04/22 08:29:36;;;;;;;;;;;21.40;33.40;;;;;;458999;259;1099;-76
2022/04/22 08:31:37;;;;;;;;;;;21.30;33.60;;;;;;461755;257;2196;-76
2022/04/22 08:33:38;;;;;;;;;;;21.40;33.50;;;;;;469449;252;1224;-76
2022/04/22 08:35:39;;;;;;;;;;;21.40;33.70;;;;;;458949;259;1194;-76
2022/04/22 08:37:42;;;;;;;;;;;21.40;33.70;;;;;;461718;257;1100;-76
2022/04/22 08:39:42;;;;;;;;;;;21.20;33.70;;;;;;459414;258;1413;-76
2022/04/22 08:41:44;;;;;;;;;;;21.20;33.80;;;;;;461597;257;1230;-76
2022/04/22 08:43:45;;;;;;;;;;;21.40;33.50;;;;;;469369;252;1093;-76
2022/04/22 08:45:46;;;;;;;;;;;21.40;33.50;;;;;;459037;259;1304;-76
2022/04/22 08:50:13;;;;;;;;;;;21.50;33.20;;;;;;462692;257;1089;-76
2022/04/22 08:52:08;;;;;;;;;;;21.50;33.30;;;;;;479102;248;2186;-76
2022/04/22 08:54:10;;;;;;;;;;;21.40;33.40;;;;;;458842;258;1118;-75
2022/04/22 08:56:12;;;;;;;;;;;21.50;33.20;;;;;;461654;258;1191;-75
2022/04/22 08:58:12;;;;;;;;;;;21.50;33.20;;;;;;469401;253;1247;-75
2022/04/22 09:00:14;;;;;;;;;;;21.50;33.10;;;;;;458728;259;1343;-76
2022/04/22 09:02:15;;;;;;;;;;;21.40;33.30;;;;;;461653;257;1080;-75
2022/04/22 09:04:16;;;;;;;;;;;21.40;33.30;;;;;;469194;252;1120;-76
2022/04/22 09:06:18;;;;;;;;;;;21.50;33.30;;;;;;458893;259;1535;-76
2022/04/22 09:08:19;;;;;;;;;;;21.50;33.30;;;;;;461567;257;1063;-76
2022/04/22 09:10:20;;;;;;;;;;;21.50;33.30;;;;;;458849;258;1291;-75
2022/04/22 09:12:22;;;;;;;;;;;21.50;33.30;;;;;;461557;257;2211;-76
2022/04/22 09:14:23;;;;;;;;;;;21.40;33.50;;;;;;469359;252;1117;-76
2022/04/22 09:16:24;;;;;;;;;;;21.40;33.60;;;;;;458848;259;1235;-75
2022/04/22 09:18:26;;;;;;;;;;;21.40;33.60;;;;;;461771;257;1153;-75
2022/04/22 09:20:27;;;;;;;;;;;21.40;33.60;;;;;;469452;252;1097;-76
2022/04/22 09:22:29;;;;;;;;;;;21.40;33.50;;;;;;459106;259;1110;-76
2022/04/22 09:24:30;;;;;;;;;;;21.50;33.50;;;;;;461725;257;1070;-76
2022/04/22 09:26:31;;;;;;;;;;;21.50;33.50;;;;;;469336;252;1342;-76
2022/04/22 09:28:34;;;;;;;;;;;21.60;33.40;;;;;;458989;259;1071;-76
2022/04/22 09:30:34;;;;;;;;;;;21.40;33.60;;;;;;461599;258;1264;-76
2022/04/22 09:32:37;;;;;;;;;;;21.40;33.50;;;;;;458839;259;2189;-76
2022/04/22 09:34:39;;;;;;;;;;;21.50;33.40;;;;;;461773;257;1323;-76
2022/04/22 09:43:50;;;;;;;;;;;21.20;33.90;;;;;;462651;257;1148;-76
2022/04/22 09:45:50;;;;;;;;;;;21.30;33.80;;;;;;479463;248;1421;-76
2022/04/22 09:47:52;;;;;;;;;;;21.30;33.90;;;;;;458796;259;1068;-75
2022/04/22 09:49:53;;;;;;;;;;;21.30;33.90;;;;;;461628;258;1061;-75
2022/04/22 09:51:54;;;;;;;;;;;21.20;33.90;;;;;;458806;259;2205;-76
2022/04/22 09:53:56;;;;;;;;;;;21.30;34.00;;;;;;461719;257;1125;-75
2022/04/22 09:55:57;;;;;;;;;;;21.40;33.80;;;;;;468458;252;1326;-76
2022/04/22 09:57:58;;;;;;;;;;;21.40;33.60;;;;;;459035;259;1176;-76
2022/04/22 10:00:00;;;;;;;;;;;21.50;33.50;;;;;;461789;257;1094;-76
2022/04/22 10:02:01;;;;;;;;;;;21.50;33.50;;;;;;458940;258;1230;-76
2022/04/22 10:04:02;;;;;;;;;;;21.40;33.70;;;;;;461789;258;1152;-76
2022/04/22 10:06:04;;;;;;;;;;;21.40;33.70;;;;;;458997;258;1386;-75
2022/04/22 10:08:05;;;;;;;;;;;21.40;33.70;;;;;;461732;258;1139;-76
2022/04/22 10:10:06;;;;;;;;;;;21.40;33.70;;;;;;458844;258;1108;-75
2022/04/22 10:12:07;;;;;;;;;;;21.40;33.90;;;;;;461642;257;2203;-76
2022/04/22 10:14:10;;;;;;;;;;;21.30;33.90;;;;;;469286;253;1068;-76
2022/04/22 10:16:11;;;;;;;;;;;21.40;33.90;;;;;;458947;259;1127;-76
2022/04/22 10:18:13;;;;;;;;;;;21.40;34.00;;;;;;461601;258;1177;-76
2022/04/22 10:20:13;;;;;;;;;;;21.30;34.00;;;;;;469515;253;1330;-76
2022/04/22 10:22:15;;;;;;;;;;;21.30;34.10;;;;;;459106;259;1130;-75
2022/04/22 10:24:16;;;;;;;;;;;21.40;33.90;;;;;;461717;258;1639;-76
2022/04/22 10:26:17;;;;;;;;;;;21.30;33.90;;;;;;469227;252;1177;-76
2022/04/22 10:28:19;;;;;;;;;;;21.30;34.00;;;;;;458832;259;1191;-76
2022/04/22 10:30:20;;;;;;;;;;;21.40;33.90;;;;;;461542;258;1225;-76
2022/04/22 10:32:21;;;;;;;;;;;21.50;34.00;;;;;;469234;252;2144;-75
2022/04/22 10:34:23;;;;;;;;;;;21.40;33.90;;;;;;458964;259;1118;-76
2022/04/22 10:36:24;;;;;;;;;;;21.50;34.00;;;;;;460922;257;1136;-76
2022/04/22 10:38:25;;;;;;;;;;;21.50;33.90;;;;;;469432;252;1087;-76
2022/04/22 10:40:27;;;;;;;;;;;21.60;33.70;;;;;;458982;259;1448;-76
2022/04/22 10:42:28;;;;;;;;;;;21.50;33.90;;;;;;461670;257;1130;-75
2022/04/22 10:49:10;;;;;;;;;;;21.40;34.00;;;;;;458360;258;1296;-76
2022/04/22 10:51:11;;;;;;;;;;;21.50;33.90;;;;;;458796;258;1175;-76
2022/04/22 10:53:12;;;;;;;;;;;21.50;33.80;;;;;;461549;257;2214;-75
2022/04/22 10:55:15;;;;;;;;;;;21.40;34.00;;;;;;458806;259;1202;-76
2022/04/22 10:57:15;;;;;;;;;;;21.40;34.10;;;;;;461604;258;1276;-76
2022/04/22 10:59:18;;;;;;;;;;;21.40;34.10;;;;;;458799;259;1192;-76
2022/04/22 11:01:18;;;;;;;;;;;21.50;34.10;;;;;;461502;258;1374;-75
2022/04/22 11:03:20;;;;;;;;;;;21.40;34.10;;;;;;458741;259;1097;-76
2022/04/22 11:05:22;;;;;;;;;;;21.40;34.20;;;;;;461605;257;1363;-76
2022/04/22 11:07:22;;;;;;;;;;;21.40;34.20;;;;;;469083;254;1437;-76
2022/04/22 11:09:23;;;;;;;;;;;21.40;34.20;;;;;;458977;259;1099;-76
2022/04/22 11:11:25;;;;;;;;;;;21.40;34.10;;;;;;461809;257;1112;-76
2022/04/22 11:13:26;;;;;;;;;;;21.50;34.20;;;;;;469352;252;2136;-76
2022/04/22 11:15:28;;;;;;;;;;;21.40;34.20;;;;;;458891;259;1054;-76
2022/04/22 11:17:29;;;;;;;;;;;21.40;34.50;;;;;;461590;258;1068;-76
2022/04/22 11:19:32;;;;;;;;;;;21.50;34.30;;;;;;469456;252;1114;-76
2022/04/22 11:21:32;;;;;;;;;;;21.50;34.20;;;;;;459024;259;1282;-76
2022/04/22 11:23:33;;;;;;;;;;;21.40;34.20;;;;;;461974;257;1043;-76
2022/04/22 11:25:34;;;;;;;;;;;21.50;34.10;;;;;;469298;253;1024;-76
2022/04/22 11:27:36;;;;;;;;;;;21.40;34.40;;;;;;458834;259;1191;-76
2022/04/22 11:29:37;;;;;;;;;;;21.40;34.30;;;;;;461702;257;1089;-76
2022/04/22 11:31:38;;;;;;;;;;;21.40;34.40;;;;;;469227;252;2135;-76
2022/04/22 11:33:40;;;;;;;;;;;21.40;34.40;;;;;;459078;259;1083;-76
2022/04/22 11:35:41;;;;;;;;;;;21.30;34.60;;;;;;461906;257;1100;-76
2022/04/22 11:37:43;;;;;;;;;;;21.50;34.60;;;;;;459033;258;1118;-76
2022/04/22 11:39:44;;;;;;;;;;;21.40;34.60;;;;;;461738;257;1070;-76
2022/04/22 11:41:46;;;;;;;;;;;21.50;34.40;;;;;;458880;259;1112;-76
2022/04/22 11:43:47;;;;;;;;;;;21.40;34.40;;;;;;461743;258;1308;-76
2022/04/22 11:45:48;;;;;;;;;;;21.60;34.30;;;;;;469204;253;1321;-75
2022/04/22 11:47:50;;;;;;;;;;;21.50;34.40;;;;;;458987;259;1143;-76
2022/04/22 11:49:51;;;;;;;;;;;21.40;34.50;;;;;;461551;257;1243;-76
2022/04/22 11:51:53;;;;;;;;;;;21.40;34.60;;;;;;469318;252;2129;-76
2022/04/22 11:53:54;;;;;;;;;;;21.40;34.60;;;;;;459028;259;1162;-76
2022/04/22 11:55:56;;;;;;;;;;;21.40;34.60;;;;;;461710;257;1386;-76
2022/04/22 11:57:57;;;;;;;;;;;21.40;34.70;;;;;;469458;252;1228;-76
2022/04/22 12:07:01;;;;;;;;;;;21.30;34.70;;;;;;479470;248;1091;-77
2022/04/22 12:09:02;;;;;;;;;;;21.30;34.90;;;;;;479524;248;1237;-76
2022/04/22 12:11:03;;;;;;;;;;;21.40;34.80;;;;;;458848;258;1137;-76
2022/04/22 12:13:05;;;;;;;;;;;21.30;34.80;;;;;;461635;258;2140;-76
2022/04/22 12:15:06;;;;;;;;;;;21.30;35.00;;;;;;469328;252;1310;-76
2022/04/22 12:17:08;;;;;;;;;;;21.30;35.00;;;;;;459028;259;1255;-76
2022/04/22 12:19:11;;;;;;;;;;;21.40;34.90;;;;;;460986;257;1054;-76
2022/04/22 12:21:11;;;;;;;;;;;21.30;35.00;;;;;;468988;254;1478;-76
2022/04/22 12:23:12;;;;;;;;;;;21.30;35.10;;;;;;459111;259;1101;-76
2022/04/22 12:25:13;;;;;;;;;;;21.40;35.00;;;;;;461741;257;1064;-76
2022/04/22 12:27:15;;;;;;;;;;;21.40;34.90;;;;;;459171;258;1363;-76
2022/04/22 12:29:16;;;;;;;;;;;21.40;34.80;;;;;;461870;257;1182;-76
2022/04/22 12:31:17;;;;;;;;;;;21.40;34.90;;;;;;469491;252;1100;-76
2022/04/22 12:33:19;;;;;;;;;;;21.30;35.00;;;;;;459003;259;2208;-76
2022/04/22 12:35:20;;;;;;;;;;;21.40;35.10;;;;;;461813;258;1055;-76
2022/04/22 12:37:24;;;;;;;;;;;21.40;35.20;;;;;;469408;252;1069;-76
2022/04/22 12:39:23;;;;;;;;;;;21.40;35.20;;;;;;458991;259;1422;-76
2022/04/22 12:41:25;;;;;;;;;;;21.40;35.30;;;;;;461833;254;1378;-76
2022/04/22 12:43:27;;;;;;;;;;;21.40;35.20;;;;;;459175;258;1365;-76
2022/04/22 12:52:25;;;;;;;;;;;21.20;35.50;;;;;;479736;248;2130;-76
2022/04/22 12:54:26;;;;;;;;;;;21.30;35.40;;;;;;479332;248;1060;-76
2022/04/22 12:56:27;;;;;;;;;;;21.30;35.40;;;;;;458184;258;1168;-76
2022/04/22 12:58:29;;;;;;;;;;;21.30;35.50;;;;;;461739;258;1125;-76
2022/04/22 13:00:30;;;;;;;;;;;21.30;35.60;;;;;;469369;252;1124;-76
2022/04/22 13:02:32;;;;;;;;;;;21.20;35.70;;;;;;459269;259;1111;-76
2022/04/22 13:04:33;;;;;;;;;;;21.20;35.80;;;;;;461815;258;1272;-76
2022/04/22 13:06:34;;;;;;;;;;;21.20;35.90;;;;;;469327;253;1181;-76